Time;durP1;ratioP1;P1;durP2;ratioP2;P2;SDS_P1;SDS_P2;PMS_P1;PMS_P2;Temp;Humidity;BMP_temperature;BMP_pressure;BME280_temperature;BME280_humidity;BME280_pressure;Samples;Min_cycle;Max_cycle;Signal;HPM_P1;HPM_P2
2023/01/03 10:50:55;;;;;;;;;;;;;;;;;;;;;
2023/01/03 10:57:47;;;;;;;23.38;12.25;;;;;;;12.35;56.08;100218.88;4950670;29;20063;-96
2023/01/03 11:00:51;;;;;;;10.13;4.57;;;;;;;12.76;52.27;100223.72;5424217;23;20058;-95
2023/01/03 11:03:18;;;;;;;9.45;5.85;;;;;;;12.99;52.00;100193.56;4967027;28;20129;-96
2023/01/03 11:06:06;;;;;;;8.32;3.80;;;;;;;13.46;50.07;100211.59;4960281;28;20039;-95
2023/01/03 11:09:05;;;;;;;7.80;3.70;;;;;;;13.80;48.59;100200.31;4965444;28;20047;-96
2023/01/03 11:12:13;;;;;;;;;;;;;;;;;;;;;
2023/01/03 11:15:02;;;;;;;;;;;;;;;;;;;;;
2023/01/03 11:17:34;;;;;;;4.43;3.08;;;;;;;14.33;47.32;100178.34;4890217;28;20097;-95
2023/01/03 11:20:45;;;;;;;9.05;4.32;;;;;;;14.59;47.34;100198.09;4954382;28;20473;-95
2023/01/03 11:23:42;;;;;;;12.00;3.50;;;;;;;14.62;46.56;100184.00;4974970;28;20133;-96
2023/01/03 11:26:42;;;;;;;9.18;3.92;;;;;;;14.81;45.87;100192.34;4963176;28;20023;-94
2023/01/03 11:29:28;;;;;;;4.93;3.25;;;;;;;14.84;46.15;100193.72;4985388;28;20472;-95
2023/01/03 11:31:58;;;;;;;4.97;2.83;;;;;;;14.83;45.63;100167.66;4975681;28;20481;-94
2023/01/03 11:34:35;;;;;;;5.40;3.47;;;;;;;15.04;45.35;100181.94;4972153;28;20092;-96
2023/01/03 11:37:35;;;;;;;10.05;6.72;;;;;;;15.12;45.88;100182.16;4994455;28;20065;-95
2023/01/03 11:40:07;;;;;;;7.68;3.97;;;;;;;15.18;45.58;100177.53;4934428;29;20114;-95
2023/01/03 11:42:47;;;;;;;8.48;4.85;;;;;;;15.11;45.61;100152.63;4938166;29;20043;-95
2023/01/03 11:45:51;;;;;;;;;;;;;;;;;;;;;
2023/01/03 11:48:32;;;;;;;7.15;4.70;;;;;;;15.35;45.25;100164.41;4932959;29;20508;-94
2023/01/03 11:51:32;;;;;;;;;;;;;;;;;;;;;
2023/01/03 11:54:39;;;;;;;6.90;4.50;;;;;;;15.37;45.65;100161.41;4938056;29;20111;-96
2023/01/03 12:04:25;;;;;;;3.85;2.95;;;;;;;15.44;44.81;100159.22;4892226;29;20573;-96
2023/01/03 12:07:25;;;;;;;5.97;3.50;;;;;;;15.35;44.99;100136.47;4871697;29;20422;-94
2023/01/03 12:10:12;;;;;;;5.32;3.65;;;;;;;15.53;44.84;100157.53;4883580;29;20486;-95
2023/01/03 12:13:26;;;;;;;7.40;4.30;;;;;;;15.60;44.70;100150.97;4944046;29;20047;-95
2023/01/03 12:16:24;;;;;;;;;;;;;;;;;;;;;
2023/01/03 12:19:05;;;;;;;7.10;3.95;;;;;;;15.59;44.77;100163.72;4960498;29;20149;-96
2023/01/03 12:22:00;;;;;;;6.15;3.25;;;;;;;15.43;44.63;100129.66;4946594;29;20066;-95
2023/01/03 12:24:33;;;;;;;3.53;2.58;;;;;;;15.42;44.69;100128.84;4949390;29;20509;-94
2023/01/03 12:27:32;;;;;;;5.55;3.53;;;;;;;15.51;45.02;100132.56;4947446;29;20019;-95
2023/01/03 12:30:30;;;;;;;5.13;3.00;;;;;;;15.69;44.72;100152.00;4936892;29;20114;-96
2023/01/03 12:33:43;;;;;;;;;;;;;;;;;;;;;
2023/01/03 12:36:29;;;;;;;5.93;3.20;;;;;;;15.76;45.12;100138.94;4964722;29;20090;-96
2023/01/03 12:39:00;;;;;;;6.13;2.63;;;;;;;15.80;44.91;100145.41;4963443;29;20443;-96
2023/01/03 12:41:29;;;;;;;6.53;3.50;;;;;;;15.85;45.26;100141.84;4945758;29;20085;-96
2023/01/03 12:44:20;;;;;;;6.85;3.75;;;;;;;15.83;44.20;100119.59;4961892;29;20305;-95
2023/01/03 12:47:14;;;;;;;5.25;3.67;;;;;;;15.91;44.18;100119.78;4937111;29;20083;-95
2023/01/03 12:54:10;;;;;;;;;;;;;;;;;;;;;
2023/01/03 12:57:01;;;;;;;6.43;3.53;;;;;;;16.08;44.23;100143.81;4911522;29;20111;-96
2023/01/03 13:00:25;;;;;;;4.18;2.35;;;;;;;16.14;43.75;100145.41;4910695;29;20083;-95
2023/01/03 13:03:26;;;;;;;3.75;2.60;;;;;;;16.07;43.97;100134.03;4898322;29;20059;-96
2023/01/03 13:06:34;;;;;;;3.67;2.55;;;;;;;16.12;44.46;100144.03;4868857;29;20101;-96
2023/01/03 13:09:35;;;;;;;;;;;;;;;;;;;;;
2023/01/03 13:11:53;;;;;;;10.70;5.57;;;;;;;15.94;44.83;100127.38;4894258;29;20118;-96
2023/01/03 13:15:12;;;;;;;7.30;3.10;;;;;;;15.90;44.20;100112.75;4866354;29;20044;-95
2023/01/03 13:17:46;;;;;;;7.88;3.67;;;;;;;16.05;44.38;100124.56;4866678;29;20131;-96
2023/01/03 13:20:51;;;;;;;;;;;;;;;;;;;;;
2023/01/03 13:23:53;;;;;;;6.90;3.15;;;;;;;16.13;44.42;100132.88;4858932;29;20104;-96
2023/01/03 13:27:05;;;;;;;12.10;6.30;;;;;;;16.03;44.22;100111.25;4915069;29;20044;-92
2023/01/03 13:29:54;;;;;;;8.63;4.50;;;;;;;16.22;44.84;100145.84;4891519;29;20043;-96
2023/01/03 13:33:00;;;;;;;7.30;4.10;;;;;;;16.23;44.05;100142.03;4907057;29;20276;-96
2023/01/03 13:35:30;;;;;;;6.15;3.20;;;;;;;16.07;44.45;100127.81;4908817;29;20036;-96
2023/01/03 13:42:10;;;;;;;5.93;3.08;;;;;;;16.08;44.84;100154.69;4913588;29;20059;-96
2023/01/03 13:44:51;;;;;;;10.95;5.05;;;;;;;16.09;44.77;100156.28;4819017;29;20042;-96
2023/01/03 13:51:01;;;;;;;8.45;4.13;;;;;;;15.99;45.49;100148.22;4755968;30;20040;-96
2023/01/03 13:53:31;;;;;;;7.32;3.60;;;;;;;15.71;45.60;100133.53;4763017;30;20043;-96
2023/01/03 13:56:46;;;;;;;5.85;3.63;;;;;;;15.74;45.73;100147.34;4827111;29;20053;-94
2023/01/03 13:59:41;;;;;;;6.55;3.53;;;;;;;15.55;46.08;100139.03;4846892;29;20042;-95
2023/01/03 14:02:34;;;;;;;10.52;5.22;;;;;;;15.61;47.17;100156.13;4853119;29;20053;-95
2023/01/03 14:05:29;;;;;;;12.88;6.32;;;;;;;15.36;47.80;100141.63;4864891;29;20101;-95
2023/01/03 14:08:12;;;;;;;9.15;5.25;;;;;;;15.19;47.90;100141.19;4884098;29;20044;-94
2023/01/03 14:10:58;;;;;;;8.23;4.82;;;;;;;15.26;48.13;100159.88;4904936;29;20059;-93
2023/01/03 14:14:15;;;;;;;10.15;5.20;;;;;;;15.10;48.71;100159.13;4919159;29;20119;-96
2023/01/03 14:17:03;;;;;;;16.33;8.55;;;;;;;14.87;49.03;100149.75;4896517;29;20045;-96
2023/01/03 14:19:40;;;;;;;13.30;6.20;;;;;;;14.75;49.71;100152.78;4866858;29;20049;-95
2023/01/03 14:22:42;;;;;;;9.95;5.97;;;;;;;14.72;49.83;100158.75;4856174;29;20041;-95
2023/01/03 14:25:41;;;;;;;19.10;5.63;;;;;;;14.58;49.90;100146.88;4855337;29;20047;-96
2023/01/03 14:28:18;;;;;;;4.35;2.50;;;;;;;14.79;49.23;100172.03;4882341;29;20040;-92
2023/01/03 14:30:47;;;;;;;6.35;2.70;;;;;;;14.89;48.88;100171.97;4904340;29;20096;-94
2023/01/03 14:33:44;;;;;;;5.20;3.28;;;;;;;14.86;48.81;100148.94;4887069;29;20119;-96
2023/01/03 14:36:22;;;;;;;9.55;4.60;;;;;;;14.90;49.41;100176.31;4869934;29;20096;-96
2023/01/03 14:38:55;;;;;;;4.93;3.10;;;;;;;14.79;49.17;100153.03;4871112;29;20053;-94
2023/01/03 14:41:37;;;;;;;3.50;2.70;;;;;;;14.83;48.75;100152.19;4871676;29;20049;-96
2023/01/03 14:44:14;;;;;;;;;;;;;;;15.04;48.69;100177.31;4874219;29;20108;-96
2023/01/03 14:47:04;;;;;;;7.20;4.03;;;;;;;14.92;49.21;100184.97;4886394;29;20052;-95
2023/01/03 14:49:52;;;;;;;7.93;4.75;;;;;;;14.69;49.80;100164.72;4875101;29;20047;-96
2023/01/03 14:52:34;;;;;;;;;;;;;;;;;;;;;
2023/01/03 14:55:01;;;;;;;;;;;;;;;14.74;49.96;100192.63;4923035;29;20087;-90
2023/01/03 14:57:29;;;;;;;8.13;5.53;;;;;;;14.49;50.47;100174.50;4934907;29;19921;-91
2023/01/03 14:59:58;;;;;;;11.68;5.70;;;;;;;14.48;50.98;100186.44;4923612;29;20079;-94
2023/01/03 15:02:28;;;;;;;10.43;5.60;;;;;;;14.43;51.02;100194.56;4958111;29;20035;-90
2023/01/03 15:04:58;;;;;;;12.18;6.07;;;;;;;14.26;51.53;100178.63;4939597;29;20457;-92
2023/01/03 15:07:32;;;;;;;12.77;6.18;;;;;;;14.11;51.99;100174.03;4953431;28;20042;-93
2023/01/03 15:10:10;;;;;;;16.02;8.60;;;;;;;14.13;52.22;100179.16;4938312;28;20133;-94
2023/01/03 15:12:52;;;;;;;18.30;8.40;;;;;;;14.02;52.20;100174.84;4962112;28;20038;-96
2023/01/03 15:15:37;;;;;;;20.67;11.70;;;;;;;14.01;52.70;100186.75;4975320;28;20019;-96
2023/01/03 15:18:03;;;;;;;13.48;8.55;;;;;;;13.99;52.61;100188.94;4947805;28;20039;-95
2023/01/03 15:20:42;;;;;;;20.80;9.73;;;;;;;13.87;53.18;100195.41;4958981;28;20022;-95
2023/01/03 15:23:26;;;;;;;32.03;11.38;;;;;;;13.79;53.69;100206.78;4931917;28;20030;-95
2023/01/03 15:25:54;;;;;;;17.75;10.48;;;;;;;13.52;53.98;100172.66;4979954;28;20027;-95
2023/01/03 15:29:27;;;;;;;19.45;11.52;;;;;;;13.37;54.45;100169.91;4931013;28;20043;-96
2023/01/03 15:31:53;;;;;;;23.40;12.20;;;;;;;13.46;54.99;100195.34;4953483;28;20054;-95
2023/01/03 15:34:50;;;;;;;15.38;7.65;;;;;;;13.27;54.66;100161.75;4989918;28;20015;-95
2023/01/03 15:37:24;;;;;;;21.58;11.70;;;;;;;13.45;55.26;100196.44;4978826;28;20011;-95
2023/01/03 15:39:54;;;;;;;21.38;11.50;;;;;;;13.21;55.20;100189.84;4957008;28;20031;-95
2023/01/03 15:45:36;;;;;;;15.88;10.70;;;;;;;13.13;55.69;100197.38;4979877;28;20038;-96
2023/01/03 15:48:12;;;;;;;19.48;11.43;;;;;;;13.06;56.11;100194.13;4959875;28;20484;-96
2023/01/03 15:50:54;;;;;;;17.08;9.65;;;;;;;13.07;56.28;100212.00;4960777;28;20027;-96
2023/01/03 15:53:29;;;;;;;22.95;10.98;;;;;;;13.07;56.53;100220.09;4946728;29;20040;-95
2023/01/03 15:56:05;;;;;;;21.45;11.38;;;;;;;12.86;56.78;100196.75;4916964;29;20070;-95
2023/01/03 15:58:39;;;;;;;20.20;11.65;;;;;;;12.82;57.42;100203.75;4897803;29;20490;-96
2023/01/03 16:01:25;;;;;;;20.38;11.88;;;;;;;12.78;57.05;100210.75;4899217;29;20043;-95
2023/01/03 16:03:53;;;;;;;25.73;13.07;;;;;;;12.81;57.42;100227.28;4908940;29;20047;-96
2023/01/03 16:06:39;;;;;;;17.20;11.52;;;;;;;12.80;57.46;100236.44;4897657;29;20027;-96
2023/01/03 16:09:28;;;;;;;19.13;11.88;;;;;;;12.65;57.56;100218.25;4900835;29;20028;-96
2023/01/03 16:12:08;;;;;;;17.10;10.30;;;;;;;12.73;58.12;100244.78;4903905;29;20075;-96
2023/01/03 16:14:40;;;;;;;16.27;9.55;;;;;;;12.67;57.99;100243.13;4918175;29;20186;-96
2023/01/03 16:17:16;;;;;;;15.52;9.60;;;;;;;12.53;58.38;100231.13;4896595;29;20134;-96
2023/01/03 16:20:13;;;;;;;20.02;12.63;;;;;;;12.54;58.56;100243.59;4899709;29;20059;-96
2023/01/03 16:22:39;;;;;;;17.02;12.48;;;;;;;12.49;58.55;100232.72;4895396;29;20044;-95
2023/01/03 16:25:05;;;;;;;26.98;18.55;;;;;;;12.44;58.55;100247.03;4893510;29;20517;-94
2023/01/03 16:36:54;;;;;;;54.53;28.48;;;;;;;12.37;59.46;100278.00;5011306;28;20101;-96
2023/01/03 16:39:26;;;;;;;66.22;32.38;;;;;;;12.27;59.37;100259.88;4968646;28;20038;-96
2023/01/03 16:42:17;;;;;;;46.53;26.52;;;;;;;12.28;59.23;100269.59;4949958;28;20034;-95
2023/01/03 16:44:49;;;;;;;45.13;23.35;;;;;;;12.21;59.43;100263.59;4956564;28;20453;-96
2023/01/03 16:47:21;;;;;;;;;;;;;;;12.29;59.56;100288.22;4950982;28;20026;-96
2023/01/03 16:49:53;;;;;;;39.83;23.75;;;;;;;12.15;59.73;100272.72;4965524;28;19933;-95
2023/01/03 16:52:22;;;;;;;40.38;23.30;;;;;;;12.06;60.01;100272.38;4950318;28;20038;-95
2023/01/03 16:54:55;;;;;;;48.58;26.17;;;;;;;12.09;60.19;100271.84;4954163;28;20488;-96
2023/01/03 17:00:02;;;;;;;51.97;25.42;;;;;;;11.94;60.03;100267.13;5083140;23;20054;-96
2023/01/03 17:02:27;;;;;;;44.53;26.90;;;;;;;12.04;60.00;100274.53;4972495;28;20030;-96
2023/01/03 17:04:53;;;;;;;66.25;30.80;;;;;;;11.91;60.24;100268.47;4950653;28;20030;-95
2023/01/03 17:07:21;;;;;;;56.92;32.28;;;;;;;11.99;60.39;100286.06;4950474;28;20029;-96
2023/01/03 17:17:21;;;;;;;73.37;32.80;;;;;;;11.90;60.74;100296.50;5002644;28;20107;-96
2023/01/03 17:19:47;;;;;;;70.47;32.83;;;;;;;11.75;60.98;100284.72;4983736;28;20034;-96
2023/01/03 17:22:20;;;;;;;64.07;34.30;;;;;;;11.69;61.02;100273.88;4950832;28;20085;-96
2023/01/03 17:24:48;;;;;;;59.92;34.00;;;;;;;11.68;61.11;100285.72;4949647;28;20036;-96
2023/01/03 17:27:25;;;;;;;68.03;34.78;;;;;;;11.76;61.50;100307.94;4949225;28;20026;-94
2023/01/03 17:29:56;;;;;;;68.45;33.53;;;;;;;11.64;61.56;100316.16;4949068;28;20030;-95
2023/01/03 17:32:22;;;;;;;66.30;31.13;;;;;;;11.40;61.91;100288.63;4964444;28;20075;-94
2023/01/03 17:34:47;;;;;;;59.67;29.70;;;;;;;11.40;61.93;100300.22;4948169;28;20026;-96
2023/01/03 17:37:18;;;;;;;59.55;30.92;;;;;;;11.32;62.01;100292.59;4947988;28;20404;-96
2023/01/03 17:39:44;;;;;;;55.63;30.65;;;;;;;11.26;62.54;100298.97;4946938;28;20120;-96
2023/01/03 17:42:15;;;;;;;54.45;27.73;;;;;;;11.11;63.21;100291.50;4948005;28;20058;-96
2023/01/03 17:50:17;;;;;;;52.72;29.65;;;;;;;11.06;63.22;100313.81;4968309;28;20058;-96
2023/01/03 17:52:42;;;;;;;52.15;29.30;;;;;;;11.01;63.32;100313.72;4948471;28;20034;-96
2023/01/03 17:55:22;;;;;;;52.00;27.55;;;;;;;10.86;63.57;100298.16;4946484;28;20504;-96
2023/01/03 17:57:47;;;;;;;56.10;27.83;;;;;;;10.98;63.34;100319.63;4947296;28;20026;-96
2023/01/03 18:00:18;;;;;;;48.35;26.67;;;;;;;10.90;63.59;100330.81;4947307;28;20096;-96
2023/01/03 18:02:47;;;;;;;73.05;35.03;;;;;;;10.72;64.03;100305.75;4948028;28;20034;-96
2023/01/03 18:05:14;;;;;;;66.60;36.17;;;;;;;10.69;64.23;100302.78;4948109;28;20033;-96
2023/01/03 18:07:42;;;;;;;61.22;30.23;;;;;;;10.64;64.27;100297.28;4962458;28;20077;-96
2023/01/03 18:10:29;;;;;;;56.88;31.15;;;;;;;10.63;64.32;100303.75;4947305;28;20030;-96
2023/01/03 18:12:54;;;;;;;54.40;28.83;;;;;;;10.61;64.23;100314.75;4947839;28;20038;-96
2023/01/03 18:15:21;;;;;;;56.53;29.23;;;;;;;10.62;64.77;100337.94;4962599;28;20042;-95
2023/01/03 18:17:47;;;;;;;50.50;26.08;;;;;;;10.58;65.03;100333.28;4946468;28;20089;-95
2023/01/03 18:20:15;;;;;;;52.88;26.00;;;;;;;10.54;64.87;100341.03;4961922;28;20409;-96
2023/01/03 18:22:42;;;;;;;53.78;27.17;;;;;;;10.39;65.18;100321.94;4946842;28;20492;-96
2023/01/03 18:25:21;;;;;;;44.58;25.15;;;;;;;10.25;65.50;100316.00;4947201;28;20026;-96
2023/01/03 18:27:56;;;;;;;44.15;23.08;;;;;;;10.34;65.91;100341.50;4947441;28;20477;-96
2023/01/03 18:30:22;;;;;;;40.83;23.05;;;;;;;10.24;65.80;100327.84;4948232;28;20022;-96
2023/01/03 18:32:48;;;;;;;42.17;23.65;;;;;;;10.18;65.92;100316.16;4946576;28;20037;-95
2023/01/03 18:35:15;;;;;;;42.83;22.67;;;;;;;10.17;65.72;100313.72;4948033;28;20031;-95
2023/01/03 18:37:41;;;;;;;39.97;23.58;;;;;;;10.08;65.77;100315.97;4947860;28;20018;-96
2023/01/03 18:40:07;;;;;;;46.90;22.63;;;;;;;10.03;66.15;100324.78;4946914;28;20023;-96
2023/01/03 18:45:21;;;;;;;55.70;21.58;;;;;;;10.04;65.89;100345.28;4967807;28;20547;-96
2023/01/03 18:47:47;;;;;;;54.35;23.30;;;;;;;9.93;65.82;100324.59;4947089;28;20030;-96
2023/01/03 18:50:17;;;;;;;50.13;27.70;;;;;;;9.99;66.11;100344.34;4949038;28;20488;-96
2023/01/03 18:52:43;;;;;;;55.72;29.55;;;;;;;9.73;66.71;100316.94;4948512;28;20104;-96
2023/01/03 18:55:29;;;;;;;97.05;40.58;;;;;;;9.83;66.60;100356.69;4946266;28;20030;-96
2023/01/03 18:57:58;;;;;;;84.32;39.08;;;;;;;9.74;67.09;100347.38;4961735;28;20058;-96
2023/01/03 19:00:24;;;;;;;57.10;30.02;;;;;;;9.60;67.10;100325.31;4946436;28;20043;-96
2023/01/03 19:02:53;;;;;;;69.47;35.65;;;;;;;9.49;67.09;100319.72;4946834;28;20038;-94
2023/01/03 19:05:19;;;;;;;71.35;35.33;;;;;;;9.54;67.28;100328.94;4946956;28;20032;-96
2023/01/03 19:07:45;;;;;;;81.18;35.60;;;;;;;9.49;67.31;100325.09;4946223;28;20015;-95
2023/01/03 19:10:17;;;;;;;64.95;33.90;;;;;;;9.58;67.86;100355.09;4947092;28;20022;-96
2023/01/03 19:12:42;;;;;;;64.10;30.27;;;;;;;9.47;67.95;100356.78;4983598;28;20173;-96
2023/01/03 19:15:21;;;;;;;47.55;23.95;;;;;;;9.35;68.04;100355.16;4950967;28;20026;-96
2023/01/03 19:17:47;;;;;;;46.95;25.13;;;;;;;9.11;68.11;100328.31;4967417;28;20033;-96
2023/01/03 19:20:13;;;;;;;46.03;24.05;;;;;;;9.27;67.97;100359.81;4949939;28;20489;-95
2023/01/03 19:22:39;;;;;;;51.00;25.45;;;;;;;9.17;67.75;100337.28;4949699;28;20022;-96
2023/01/03 19:25:07;;;;;;;51.90;27.10;;;;;;;9.06;68.60;100331.69;4950881;28;20026;-96
2023/01/03 19:27:36;;;;;;;51.72;28.65;;;;;;;9.14;68.77;100354.72;4951119;28;20022;-95
2023/01/03 19:30:03;;;;;;;61.45;31.02;;;;;;;9.07;68.98;100348.66;4950598;28;20029;-95
2023/01/03 19:32:29;;;;;;;66.30;31.63;;;;;;;9.10;68.89;100351.66;4950282;28;20416;-96
2023/01/03 19:34:54;;;;;;;51.60;27.55;;;;;;;9.02;68.80;100349.34;4950601;28;20022;-94
2023/01/03 19:37:21;;;;;;;55.10;28.23;;;;;;;8.89;68.51;100330.78;4950653;28;20030;-95
2023/01/03 19:39:47;;;;;;;55.40;27.33;;;;;;;9.01;68.68;100363.03;4950355;28;20034;-95
2023/01/03 19:45:27;;;;;;;58.95;26.88;;;;;;;8.76;68.63;100334.50;4971411;28;20574;-95
2023/01/03 19:47:56;;;;;;;50.33;21.90;;;;;;;8.66;68.78;100358.44;4965322;28;20030;-95
2023/01/03 19:50:26;;;;;;;49.90;23.40;;;;;;;8.48;69.01;100345.91;4951000;28;20054;-96
2023/01/03 19:52:52;;;;;;;42.35;20.55;;;;;;;8.50;68.73;100354.53;4951234;28;20026;-96
2023/01/03 19:55:18;;;;;;;42.60;20.88;;;;;;;8.64;68.63;100373.94;4949899;28;20033;-96
2023/01/03 19:57:47;;;;;;;47.63;21.42;;;;;;;8.61;69.08;100367.19;4950141;28;20022;-96
2023/01/03 20:00:21;;;;;;;45.10;20.45;;;;;;;8.44;69.16;100372.38;4949707;28;20529;-96
2023/01/03 20:02:51;;;;;;;39.65;20.75;;;;;;;8.42;69.13;100360.25;4950619;28;20030;-96
2023/01/03 20:05:37;;;;;;;43.47;23.45;;;;;;;8.53;69.17;100380.09;4950798;28;20022;-96
2023/01/03 20:08:04;;;;;;;54.50;23.85;;;;;;;8.35;69.34;100357.63;4964955;28;20034;-96
2023/01/03 20:10:36;;;;;;;48.97;25.73;;;;;;;8.40;69.77;100371.16;4965403;28;20498;-96
2023/01/03 20:13:05;;;;;;;47.08;22.20;;;;;;;8.18;69.60;100367.38;4950308;28;20026;-96
2023/01/03 20:15:39;;;;;;;41.78;21.27;;;;;;;8.34;69.11;100393.56;4949444;28;20026;-96
2023/01/03 20:18:13;;;;;;;39.25;21.15;;;;;;;8.13;69.48;100375.28;4950907;28;20026;-96
2023/01/03 20:20:39;;;;;;;33.63;19.55;;;;;;;7.98;69.80;100357.72;4951417;28;20026;-96
2023/01/03 20:23:11;;;;;;;32.25;18.08;;;;;;;7.97;69.77;100364.16;4949799;28;20029;-96
2023/01/03 20:25:37;;;;;;;35.40;17.45;;;;;;;7.94;70.33;100377.19;4945935;28;20034;-96
2023/01/03 20:28:03;;;;;;;25.55;16.05;;;;;;;7.84;69.89;100378.56;4964801;28;20472;-96
2023/01/03 20:30:30;;;;;;;28.52;15.35;;;;;;;7.81;70.23;100392.41;4965702;28;20025;-96
2023/01/03 20:32:55;;;;;;;34.90;17.73;;;;;;;7.72;70.21;100372.31;4953093;28;20027;-96
2023/01/03 20:35:22;;;;;;;33.38;18.65;;;;;;;7.74;69.66;100372.91;4942324;28;20038;-96
2023/01/03 20:37:49;;;;;;;28.50;17.65;;;;;;;7.87;70.21;100391.50;4964983;28;20046;-96
2023/01/03 20:40:16;;;;;;;34.15;19.63;;;;;;;7.68;70.27;100363.91;4965467;28;20531;-96
2023/01/03 20:42:42;;;;;;;35.05;19.95;;;;;;;7.79;70.66;100381.09;4951467;28;20409;-95
2023/01/03 20:45:08;;;;;;;36.47;19.52;;;;;;;7.67;70.39;100364.13;4929767;28;20029;-94
2023/01/03 20:47:34;;;;;;;48.25;24.67;;;;;;;7.51;70.73;100362.03;4945462;28;20035;-94
2023/01/03 20:49:59;;;;;;;41.13;20.55;;;;;;;7.54;71.36;100375.00;4937035;28;20011;-93
2023/01/03 20:52:25;;;;;;;33.28;19.27;;;;;;;7.25;70.97;100362.09;4955069;28;20512;-95
2023/01/03 20:54:51;;;;;;;32.33;18.98;;;;;;;7.40;70.78;100374.31;4955933;28;20023;-94
2023/01/03 20:57:17;;;;;;;38.95;19.27;;;;;;;7.56;70.90;100395.16;4946383;28;20455;-95
2023/01/03 20:59:43;;;;;;;35.40;19.48;;;;;;;7.48;70.86;100374.03;4963529;28;20572;-95
2023/01/03 21:02:09;;;;;;;40.38;19.83;;;;;;;7.56;70.55;100392.50;4934798;28;20029;-94
2023/01/03 21:04:35;;;;;;;38.45;20.15;;;;;;;7.37;70.70;100370.22;4940576;28;20030;-95
2023/01/03 21:07:00;;;;;;;27.48;17.58;;;;;;;7.23;70.65;100393.66;4955858;28;20028;-95
2023/01/03 21:09:26;;;;;;;33.30;18.15;;;;;;;7.09;71.42;100378.75;4963643;28;20118;-92
2023/01/03 21:11:51;;;;;;;28.80;17.65;;;;;;;7.22;71.09;100381.31;4963517;28;20030;-94
2023/01/03 21:14:17;;;;;;;30.90;18.35;;;;;;;7.28;71.22;100387.63;4963723;28;20037;-94
2023/01/03 21:16:45;;;;;;;30.27;18.65;;;;;;;7.32;71.00;100396.03;4979568;28;20052;-95
2023/01/03 21:19:18;;;;;;;40.13;19.05;;;;;;;7.26;71.29;100398.56;4965933;28;20030;-95
2023/01/03 21:21:45;;;;;;;29.02;18.08;;;;;;;7.25;71.10;100396.94;4964551;28;20037;-94
2023/01/03 21:24:11;;;;;;;36.65;18.65;;;;;;;7.26;71.10;100400.41;4951967;28;20126;-95
2023/01/03 21:26:37;;;;;;;33.75;17.88;;;;;;;7.24;71.08;100399.81;4940870;28;20062;-94
2023/01/03 21:29:02;;;;;;;38.05;20.35;;;;;;;7.19;71.58;100397.00;4932649;28;20117;-93
2023/01/03 21:31:28;;;;;;;30.65;17.50;;;;;;;6.87;71.13;100397.91;4927887;28;20030;-95
2023/01/03 21:33:55;;;;;;;28.48;16.73;;;;;;;6.83;71.27;100404.72;4941586;28;20106;-94
2023/01/03 21:36:26;;;;;;;28.23;16.48;;;;;;;6.61;71.52;100406.13;4938259;28;20026;-95
2023/01/03 21:38:54;;;;;;;31.30;15.77;;;;;;;6.58;72.11;100414.56;4970764;28;20031;-95
2023/01/03 21:41:22;;;;;;;29.90;15.63;;;;;;;6.67;72.08;100410.59;4947186;28;20317;-94
2023/01/03 21:43:47;;;;;;;27.48;16.92;;;;;;;6.67;72.16;100408.75;4963326;28;20030;-93
2023/01/03 21:46:17;;;;;;;31.30;17.10;;;;;;;6.70;72.40;100415.50;4962830;28;20104;-95
2023/01/03 21:48:43;;;;;;;26.85;16.77;;;;;;;6.46;72.49;100388.50;4962697;28;20477;-94
2023/01/03 21:51:09;;;;;;;36.10;17.23;;;;;;;6.53;72.33;100393.81;4947485;28;20030;-95
2023/01/03 21:53:34;;;;;;;31.23;16.73;;;;;;;6.73;71.92;100409.75;4940888;28;20061;-95
2023/01/03 21:56:00;;;;;;;32.28;17.40;;;;;;;6.74;71.95;100403.34;4956508;28;20017;-94
2023/01/03 21:58:26;;;;;;;34.47;17.35;;;;;;;6.72;72.17;100393.88;4946974;28;20066;-93
2023/01/03 22:00:51;;;;;;;27.45;16.85;;;;;;;6.84;72.07;100416.25;4927600;28;20085;-95
2023/01/03 22:06:09;;;;;;;27.58;17.05;;;;;;;6.81;72.69;100414.81;4979331;28;20094;-95
2023/01/03 22:08:35;;;;;;;37.47;18.80;;;;;;;6.78;72.88;100407.22;4959740;28;20085;-94
2023/01/03 22:11:00;;;;;;;35.40;19.15;;;;;;;6.81;72.87;100409.47;4957903;28;20031;-94
2023/01/03 22:13:26;;;;;;;34.70;20.15;;;;;;;6.74;72.71;100391.81;4933174;28;20066;-94
2023/01/03 22:15:51;;;;;;;33.28;19.27;;;;;;;6.59;72.70;100373.41;4928473;28;20030;-94
2023/01/03 22:18:17;;;;;;;28.02;17.00;;;;;;;6.43;72.52;100380.94;4944426;28;20034;-94
2023/01/03 22:20:43;;;;;;;32.35;16.95;;;;;;;6.54;72.49;100400.81;4945339;28;20022;-95
2023/01/03 22:23:08;;;;;;;30.83;17.30;;;;;;;6.54;72.34;100392.78;4941759;28;20034;-94
2023/01/03 22:25:34;;;;;;;31.67;18.30;;;;;;;6.63;72.43;100399.50;4954147;28;20070;-95
2023/01/03 22:27:59;;;;;;;31.65;17.77;;;;;;;6.56;72.58;100400.63;4943650;28;20023;-95
2023/01/03 22:30:25;;;;;;;30.90;16.23;;;;;;;6.42;71.69;100379.28;4942038;28;20082;-95
2023/01/03 22:32:50;;;;;;;28.95;17.00;;;;;;;6.43;71.95;100388.97;4927409;28;20085;-95
2023/01/03 22:35:17;;;;;;;27.95;16.13;;;;;;;6.51;71.88;100397.75;4927478;28;20046;-94
2023/01/03 22:37:43;;;;;;;27.25;16.38;;;;;;;6.29;72.43;100382.06;4927300;28;20050;-95
2023/01/03 22:40:12;;;;;;;27.77;16.58;;;;;;;6.42;72.09;100405.22;4942361;28;20015;-95
2023/01/03 22:42:38;;;;;;;30.10;16.27;;;;;;;6.41;72.13;100391.03;4942448;28;20037;-94
2023/01/03 22:45:05;;;;;;;26.33;15.60;;;;;;;6.46;72.05;100393.88;4926966;28;20022;-94
2023/01/03 22:47:30;;;;;;;29.00;17.48;;;;;;;6.46;72.26;100409.91;4942634;28;20027;-94
2023/01/03 22:49:56;;;;;;;32.33;18.23;;;;;;;6.20;72.37;100370.78;4926610;28;20022;-94
2023/01/03 22:52:22;;;;;;;32.85;18.38;;;;;;;6.17;72.51;100383.78;4942764;28;20026;-95
2023/01/03 22:54:47;;;;;;;30.67;18.70;;;;;;;6.17;72.33;100384.59;4929428;28;20034;-94
2023/01/03 22:57:13;;;;;;;31.33;17.88;;;;;;;6.21;72.56;100407.19;4941596;28;20027;-94
2023/01/03 22:59:38;;;;;;;30.70;15.93;;;;;;;6.10;72.04;100380.28;4938571;28;20043;-94
2023/01/03 23:02:04;;;;;;;34.53;16.13;;;;;;;6.11;71.74;100380.09;4937388;28;20416;-94
2023/01/03 23:04:30;;;;;;;28.17;17.27;;;;;;;6.17;71.95;100403.31;4960818;28;20075;-94
2023/01/03 23:06:55;;;;;;;30.42;16.88;;;;;;;5.95;72.11;100394.75;4961330;28;20026;-95
2023/01/03 23:09:21;;;;;;;34.58;15.52;;;;;;;5.88;72.54;100401.97;4958934;28;20046;-94
2023/01/03 23:14:31;;;;;;;27.15;16.10;;;;;;;5.75;72.82;100400.19;4952167;28;20057;-94
2023/01/03 23:16:57;;;;;;;25.83;15.57;;;;;;;5.74;72.34;100390.50;4938307;28;20031;-95
2023/01/03 23:19:25;;;;;;;30.27;16.73;;;;;;;5.76;72.84;100401.81;4950002;28;20034;-95
2023/01/03 23:21:51;;;;;;;31.08;18.27;;;;;;;5.64;72.86;100401.66;4933155;28;20030;-94
2023/01/03 23:24:21;;;;;;;31.58;18.15;;;;;;;5.49;72.93;100384.22;4937349;28;20035;-94
2023/01/03 23:26:47;;;;;;;30.50;16.92;;;;;;;5.56;72.92;100401.88;4957809;28;20035;-94
2023/01/03 23:29:14;;;;;;;29.02;17.38;;;;;;;5.48;73.57;100407.44;4961158;28;20030;-95
2023/01/03 23:31:39;;;;;;;29.00;16.98;;;;;;;5.48;73.59;100420.81;4960819;28;20030;-94
2023/01/03 23:34:07;;;;;;;33.20;17.42;;;;;;;5.41;73.52;100423.47;4956478;28;20035;-94
2023/01/03 23:36:32;;;;;;;32.45;16.73;;;;;;;5.37;73.59;100410.75;4929231;28;20018;-94
2023/01/03 23:38:58;;;;;;;30.10;18.08;;;;;;;5.36;72.90;100387.75;4957643;28;20031;-94
2023/01/03 23:41:23;;;;;;;32.42;16.85;;;;;;;5.47;73.31;100405.78;4971486;28;20030;-95
2023/01/03 23:43:49;;;;;;;34.15;17.48;;;;;;;5.51;73.49;100404.34;4952688;28;20523;-94
2023/01/03 23:46:16;;;;;;;29.55;17.38;;;;;;;5.45;73.34;100413.19;4949082;28;20030;-94
2023/01/03 23:48:42;;;;;;;31.95;17.10;;;;;;;5.25;73.25;100403.38;4943568;28;20041;-94
2023/01/03 23:51:08;;;;;;;37.30;19.20;;;;;;;5.24;73.25;100409.75;4940517;28;20112;-95
2023/01/03 23:53:34;;;;;;;31.08;18.25;;;;;;;5.27;73.74;100419.19;4961733;28;20022;-94
2023/01/03 23:56:03;;;;;;;30.00;18.42;;;;;;;5.10;73.67;100404.63;4962102;28;20033;-95
2023/01/03 23:58:28;;;;;;;33.08;17.85;;;;;;;5.07;74.23;100421.88;4964930;28;20038;-94
